Time;durP1;ratioP1;P1;durP2;ratioP2;P2;SDS_P1;SDS_P2;PMS_P1;PMS_P2;Temp;Humidity;BMP_temperature;BMP_pressure;BME280_temperature;BME280_humidity;BME280_pressure;Samples;Min_cycle;Max_cycle;Signal;HPM_P1;HPM_P2
2023/03/02 00:01:10;;;;;;;24.00;13.05;;;2.10;99.90;;;;;;5034696;28;20038;-79
2023/03/02 00:03:39;;;;;;;23.15;12.55;;;2.10;99.90;;;;;;5067024;28;20056;-79
2023/03/02 00:06:07;;;;;;;24.83;13.35;;;2.10;99.90;;;;;;5051035;28;20414;-79
2023/03/02 00:08:35;;;;;;;24.30;13.40;;;2.10;99.90;;;;;;5050322;28;20103;-79
2023/03/02 00:11:02;;;;;;;24.83;13.15;;;2.10;99.90;;;;;;5066157;28;20045;-79
2023/03/02 00:13:30;;;;;;;24.13;13.38;;;2.10;99.90;;;;;;5051261;28;20405;-79
2023/03/02 00:15:56;;;;;;;22.65;12.38;;;2.10;99.90;;;;;;5053670;28;20041;-79
2023/03/02 00:18:23;;;;;;;26.30;13.50;;;2.10;99.90;;;;;;5070295;28;20144;-79
2023/03/02 00:20:50;;;;;;;20.15;11.77;;;2.10;99.90;;;;;;5070005;28;20405;-79
2023/03/02 00:23:16;;;;;;;22.10;12.68;;;2.20;99.90;;;;;;5053786;28;20555;-79
2023/03/02 00:25:43;;;;;;;23.85;12.77;;;2.30;99.90;;;;;;5053554;28;20044;-79
2023/03/02 00:28:10;;;;;;;27.85;14.05;;;2.00;99.90;;;;;;5086471;28;20045;-79
2023/03/02 00:30:38;;;;;;;26.75;13.43;;;2.30;99.90;;;;;;5069934;28;20505;-79
2023/03/02 00:33:04;;;;;;;25.52;13.48;;;2.20;99.90;;;;;;5069801;28;20040;-79
2023/03/02 00:35:36;;;;;;;28.23;13.75;;;2.00;99.90;;;;;;5074784;28;20513;-79
2023/03/02 00:38:03;;;;;;;24.92;13.70;;;1.90;99.90;;;;;;5033630;28;20037;-79
2023/03/02 00:40:29;;;;;;;27.85;14.13;;;2.40;99.90;;;;;;5033462;28;20099;-79
2023/03/02 00:42:56;;;;;;;25.58;13.57;;;2.20;99.90;;;;;;5016902;28;20053;-79
2023/03/02 00:45:23;;;;;;;27.63;13.90;;;1.90;99.90;;;;;;5049707;28;20058;-79
2023/03/02 00:47:49;;;;;;;26.77;13.60;;;2.10;99.90;;;;;;5049816;28;20490;-79
2023/03/02 00:50:16;;;;;;;27.90;14.52;;;2.40;99.90;;;;;;5033117;28;20120;-79
2023/03/02 00:52:43;;;;;;;30.65;14.35;;;1.90;99.90;;;;;;5066008;28;20128;-79
2023/03/02 00:55:10;;;;;;;26.17;14.45;;;1.90;99.90;;;;;;5035646;28;20804;-79
2023/03/02 00:57:36;;;;;;;26.52;13.65;;;1.80;99.90;;;;;;5064279;28;20124;-79
2023/03/02 01:00:03;;;;;;;30.85;15.20;;;1.90;99.90;;;;;;5042726;28;20041;-79
2023/03/02 01:02:30;;;;;;;28.25;15.48;;;1.80;99.90;;;;;;5036763;28;20049;-79
2023/03/02 01:04:57;;;;;;;29.75;15.60;;;1.80;99.90;;;;;;5052926;28;20037;-79
2023/03/02 01:07:25;;;;;;;26.45;13.85;;;2.50;99.90;;;;;;5069376;28;20500;-79
2023/03/02 01:09:51;;;;;;;28.88;14.70;;;1.80;99.90;;;;;;5049396;28;20037;-79
2023/03/02 01:12:18;;;;;;;30.80;15.27;;;1.80;99.90;;;;;;5033314;28;20045;-79
2023/03/02 01:14:47;;;;;;;30.27;15.77;;;1.80;99.90;;;;;;5065573;28;20067;-79
2023/03/02 01:17:14;;;;;;;29.75;15.20;;;2.20;99.90;;;;;;5049607;28;20048;-79
2023/03/02 01:19:42;;;;;;;29.38;14.02;;;1.70;99.90;;;;;;5049175;28;20123;-79
2023/03/02 01:22:09;;;;;;;29.25;14.05;;;1.70;99.90;;;;;;5047444;28;20073;-79
2023/03/02 01:24:35;;;;;;;31.08;15.77;;;1.70;99.90;;;;;;5065874;28;20142;-79
2023/03/02 01:27:02;;;;;;;30.70;15.45;;;1.70;99.90;;;;;;5048753;28;20073;-79
2023/03/02 01:29:29;;;;;;;30.08;15.68;;;1.70;99.90;;;;;;5033245;28;20476;-79
2023/03/02 01:31:56;;;;;;;31.85;15.93;;;1.70;99.90;;;;;;5032351;28;20060;-79
2023/03/02 01:34:22;;;;;;;32.65;16.17;;;1.60;99.90;;;;;;5032540;28;20049;-79
2023/03/02 01:36:49;;;;;;;30.70;14.93;;;1.60;99.90;;;;;;5032606;28;20056;-79
2023/03/02 01:39:16;;;;;;;30.00;14.90;;;1.60;99.90;;;;;;5049058;28;20470;-79
2023/03/02 01:41:44;;;;;;;27.80;14.55;;;1.70;99.90;;;;;;5048579;28;20064;-79
2023/03/02 01:44:32;;;;;;;28.95;14.10;;;1.90;99.90;;;;;;5049181;28;20050;-79
2023/03/02 01:47:00;;;;;;;29.33;14.00;;;2.30;99.90;;;;;;5085024;28;20501;-79
2023/03/02 01:49:27;;;;;;;29.02;13.95;;;1.60;99.90;;;;;;5052432;28;20048;-79
2023/03/02 01:51:54;;;;;;;28.77;13.45;;;1.50;99.90;;;;;;5052056;28;20045;-79
2023/03/02 01:54:22;;;;;;;28.85;14.10;;;1.50;99.90;;;;;;5069212;28;20049;-79
2023/03/02 01:56:53;;;;;;;26.83;12.07;;;1.40;99.90;;;;;;5068639;28;20155;-79
2023/03/02 01:59:22;;;;;;;23.33;10.55;;;1.40;99.90;;;;;;5085318;28;20045;-79
2023/03/02 02:01:54;;;;;;;26.23;10.25;;;1.40;99.90;;;;;;5071198;28;20477;-79
2023/03/02 02:04:23;;;;;;;26.30;11.57;;;2.00;99.90;;;;;;5105900;28;20075;-78
2023/03/02 02:06:58;;;;;;;26.13;11.20;;;1.30;99.90;;;;;;5088738;28;20036;-79
2023/03/02 02:09:27;;;;;;;26.52;11.18;;;1.30;99.90;;;;;;5088603;28;20036;-79
2023/03/02 02:11:54;;;;;;;28.08;11.15;;;1.30;99.90;;;;;;5088698;28;20052;-79
2023/03/02 02:14:21;;;;;;;24.75;11.65;;;1.40;99.90;;;;;;5088702;28;20044;-79
2023/03/02 02:16:47;;;;;;;29.02;11.63;;;1.30;99.90;;;;;;5071471;28;20493;-79
2023/03/02 02:19:27;;;;;;;29.15;11.40;;;1.30;99.90;;;;;;5072404;28;20048;-79
2023/03/02 02:21:54;;;;;;;27.65;11.55;;;1.30;99.90;;;;;;5105235;28;20048;-79
2023/03/02 02:24:54;;;;;;;28.95;11.65;;;1.30;99.90;;;;;;5071990;28;20041;-79
2023/03/02 02:27:21;;;;;;;31.35;13.13;;;1.20;99.90;;;;;;5100452;28;20033;-79
2023/03/02 02:29:51;;;;;;;34.30;13.40;;;1.40;99.90;;;;;;5077964;28;20043;-79
2023/03/02 02:32:25;;;;;;;59.85;14.32;;;1.20;99.90;;;;;;5071959;28;20119;-79
2023/03/02 02:35:14;;;;;;;30.70;12.45;;;1.20;99.90;;;;;;5091924;28;20051;-79
2023/03/02 02:37:45;;;;;;;32.60;13.10;;;1.20;99.90;;;;;;5091922;28;20076;-79
2023/03/02 02:40:16;;;;;;;32.25;13.73;;;1.20;99.90;;;;;;5091914;28;20396;-79
2023/03/02 02:42:50;;;;;;;40.38;14.45;;;1.70;99.90;;;;;;5108925;28;20492;-79
2023/03/02 02:45:19;;;;;;;49.33;13.23;;;1.20;99.90;;;;;;5085355;28;20505;-79
2023/03/02 02:47:48;;;;;;;45.90;15.75;;;1.10;99.90;;;;;;5068123;28;20038;-79
2023/03/02 02:50:43;;;;;;;37.35;13.90;;;1.10;99.90;;;;;;5051932;28;20053;-79
2023/03/02 02:53:15;;;;;;;36.83;14.82;;;1.20;99.90;;;;;;5049535;28;20109;-79
2023/03/02 02:55:43;;;;;;;37.15;14.80;;;1.90;99.90;;;;;;5051918;28;20038;-79
2023/03/02 02:58:42;;;;;;;47.88;15.15;;;1.10;99.90;;;;;;5051507;28;20041;-79
2023/03/02 03:01:18;;;;;;;36.92;13.55;;;1.10;99.90;;;;;;5051695;28;20045;-79
2023/03/02 03:03:55;;;;;;;43.60;16.15;;;1.30;99.90;;;;;;5068304;28;20044;-79
2023/03/02 03:06:25;;;;;;;36.42;15.15;;;1.10;99.90;;;;;;5068029;28;20058;-79
2023/03/02 03:08:56;;;;;;;43.72;15.73;;;1.10;99.90;;;;;;5074911;28;20032;-79
2023/03/02 03:11:26;;;;;;;58.33;15.57;;;1.20;99.90;;;;;;5060966;28;20049;-79
2023/03/02 03:14:09;;;;;;;52.97;15.15;;;1.20;99.90;;;;;;5068274;28;20136;-79
2023/03/02 03:16:38;;;;;;;45.13;16.52;;;1.10;99.90;;;;;;5052158;28;20045;-79
2023/03/02 03:19:21;;;;;;;49.42;15.57;;;1.10;99.90;;;;;;5051820;28;20041;-79
2023/03/02 03:21:51;;;;;;;54.35;16.88;;;1.00;99.90;;;;;;5077820;28;20124;-79
2023/03/02 03:24:17;;;;;;;44.10;17.65;;;1.00;99.90;;;;;;5055219;28;20045;-79
2023/03/02 03:26:44;;;;;;;50.88;17.90;;;1.00;99.90;;;;;;5034844;28;20041;-79
2023/03/02 03:29:12;;;;;;;44.15;15.15;;;1.00;99.90;;;;;;5034413;28;20068;-79
2023/03/02 03:31:39;;;;;;;45.53;16.35;;;1.00;99.90;;;;;;5034843;28;20042;-79
2023/03/02 03:34:07;;;;;;;60.58;18.33;;;1.90;99.90;;;;;;5061077;28;20499;-79
2023/03/02 03:36:34;;;;;;;66.85;17.17;;;1.10;99.90;;;;;;5087689;28;20127;-79
2023/03/02 03:39:04;;;;;;;58.40;16.70;;;1.00;99.90;;;;;;5071007;28;20128;-79
2023/03/02 03:41:32;;;;;;;52.60;15.15;;;1.00;99.90;;;;;;5070767;28;20041;-79
2023/03/02 03:43:58;;;;;;;56.63;17.38;;;0.90;99.90;;;;;;5070844;28;20037;-79
2023/03/02 03:46:26;;;;;;;53.47;16.55;;;0.80;99.90;;;;;;5070610;28;20057;-79
2023/03/02 03:48:53;;;;;;;53.75;16.35;;;0.90;99.90;;;;;;5070981;28;20076;-79
2023/03/02 03:51:19;;;;;;;53.72;16.77;;;1.60;99.90;;;;;;5070517;28;20095;-79
2023/03/02 03:53:58;;;;;;;88.22;16.35;;;0.90;99.90;;;;;;5070342;28;20037;-79
2023/03/02 03:56:27;;;;;;;79.72;15.48;;;0.90;99.90;;;;;;5055690;28;20051;-79
2023/03/02 03:59:05;;;;;;;92.65;17.08;;;0.80;99.90;;;;;;5070675;28;20413;-79
2023/03/02 04:01:36;;;;;;;79.07;16.88;;;0.70;99.90;;;;;;5040976;28;20045;-79
2023/03/02 04:04:04;;;;;;;51.30;17.30;;;0.80;99.90;;;;;;5069682;28;20083;-79
2023/03/02 04:06:31;;;;;;;62.65;16.67;;;0.80;99.90;;;;;;5054055;28;20080;-79
2023/03/02 04:09:03;;;;;;;60.53;16.13;;;0.80;99.90;;;;;;5054381;28;20072;-79
2023/03/02 04:11:35;;;;;;;138.10;18.38;;;1.00;99.90;;;;;;5062740;28;20056;-79
2023/03/02 04:14:03;;;;;;;64.90;16.40;;;0.70;99.90;;;;;;5039549;28;20040;-80
2023/03/02 04:16:31;;;;;;;91.10;18.58;;;0.60;99.90;;;;;;5066011;28;20044;-79
2023/03/02 04:18:58;;;;;;;99.70;18.10;;;0.90;99.90;;;;;;5066726;28;20508;-79
2023/03/02 04:21:25;;;;;;;92.95;15.82;;;1.50;99.90;;;;;;5066262;28;20052;-78
2023/03/02 04:23:52;;;;;;;62.05;13.20;;;0.70;99.90;;;;;;5066893;28;20048;-79
2023/03/02 04:26:19;;;;;;;46.63;13.82;;;1.40;99.90;;;;;;5033724;28;20029;-79
2023/03/02 04:28:49;;;;;;;51.55;13.80;;;0.90;99.90;;;;;;5035640;28;20120;-79
2023/03/02 04:31:16;;;;;;;50.25;13.27;;;0.80;99.90;;;;;;5033767;28;20110;-79
2023/03/02 04:33:43;;;;;;;45.47;13.40;;;1.00;99.90;;;;;;5034087;28;20091;-79
2023/03/02 04:36:10;;;;;;;48.08;12.65;;;0.80;99.90;;;;;;5016946;28;20103;-79
2023/03/02 04:38:36;;;;;;;53.22;12.45;;;0.80;99.90;;;;;;5049980;28;20056;-79
2023/03/02 04:41:03;;;;;;;44.20;12.40;;;1.40;99.90;;;;;;5035086;28;20045;-79
2023/03/02 04:43:31;;;;;;;93.05;13.32;;;0.80;99.90;;;;;;5067448;28;20151;-79
2023/03/02 04:45:57;;;;;;;53.15;13.68;;;0.80;99.90;;;;;;5044903;28;20045;-79
2023/03/02 04:48:24;;;;;;;36.20;11.95;;;0.80;99.90;;;;;;5036432;28;20067;-79
2023/03/02 04:50:51;;;;;;;36.20;12.23;;;1.20;99.90;;;;;;5069419;28;20537;-79
2023/03/02 04:53:18;;;;;;;46.70;12.60;;;1.10;99.90;;;;;;5052436;28;20167;-79
2023/03/02 04:55:46;;;;;;;31.95;10.88;;;0.90;99.90;;;;;;5068838;28;20033;-79
2023/03/02 04:58:13;;;;;;;43.63;12.63;;;0.90;99.90;;;;;;5069588;28;20048;-79
2023/03/02 05:00:39;;;;;;;39.50;11.98;;;1.60;99.90;;;;;;5053123;28;20041;-79
2023/03/02 05:03:06;;;;;;;35.53;11.10;;;0.90;99.90;;;;;;5086057;28;20041;-79
2023/03/02 05:05:33;;;;;;;35.13;11.48;;;0.90;99.90;;;;;;5053176;28;20131;-79
2023/03/02 05:08:00;;;;;;;29.02;11.45;;;2.00;99.90;;;;;;5076079;28;20148;-79
2023/03/02 05:10:27;;;;;;;49.20;12.57;;;0.90;99.90;;;;;;5049069;28;20043;-79
2023/03/02 05:12:57;;;;;;;40.15;11.32;;;0.90;99.90;;;;;;5049551;28;20095;-79
2023/03/02 05:15:27;;;;;;;43.72;12.07;;;1.50;99.90;;;;;;5032876;28;20123;-79
2023/03/02 05:17:54;;;;;;;53.40;11.43;;;1.00;99.90;;;;;;5065507;28;20051;-79
2023/03/02 05:20:26;;;;;;;64.72;12.60;;;1.50;99.90;;;;;;5032672;28;20405;-79
2023/03/02 05:22:54;;;;;;;30.75;11.05;;;0.90;99.90;;;;;;5034451;28;20041;-79
2023/03/02 05:25:21;;;;;;;26.48;10.05;;;0.90;99.90;;;;;;5048856;28;20033;-79
2023/03/02 05:27:48;;;;;;;29.23;9.88;;;0.90;99.90;;;;;;5048999;28;20545;-79
2023/03/02 05:30:16;;;;;;;36.45;10.25;;;0.80;99.90;;;;;;5016335;28;20129;-79
2023/03/02 05:32:42;;;;;;;38.30;10.05;;;0.80;99.90;;;;;;5048937;28;20549;-79
2023/03/02 05:35:09;;;;;;;34.63;9.18;;;0.80;99.90;;;;;;5052129;28;20128;-79
2023/03/02 05:37:40;;;;;;;28.27;10.07;;;1.40;99.90;;;;;;5068668;28;20572;-79
2023/03/02 05:40:08;;;;;;;58.85;10.77;;;0.80;99.90;;;;;;5069017;28;20132;-79
2023/03/02 05:42:36;;;;;;;31.15;10.98;;;0.80;99.90;;;;;;5068596;28;20041;-79
2023/03/02 05:45:04;;;;;;;33.83;9.60;;;0.80;99.90;;;;;;5085606;28;20033;-79
2023/03/02 05:47:31;;;;;;;47.25;10.65;;;0.80;99.90;;;;;;5048320;28;20045;-79
2023/03/02 05:49:58;;;;;;;57.08;8.60;;;0.80;99.90;;;;;;5065285;28;20193;-79
2023/03/02 05:52:25;;;;;;;24.95;8.20;;;1.30;99.90;;;;;;5032193;28;20042;-79
2023/03/02 05:54:51;;;;;;;38.10;9.73;;;0.60;99.90;;;;;;5065144;28;20457;-79
2023/03/02 05:57:18;;;;;;;18.65;8.65;;;0.60;99.90;;;;;;5048521;28;20041;-79
2023/03/02 05:59:45;;;;;;;37.45;8.85;;;0.60;99.90;;;;;;5035759;28;20040;-79
2023/03/02 06:02:12;;;;;;;22.23;9.43;;;0.60;99.90;;;;;;5052332;28;20073;-79
2023/03/02 06:04:41;;;;;;;52.63;8.90;;;0.60;99.90;;;;;;5068565;28;20073;-79
2023/03/02 06:07:12;;;;;;;33.05;9.13;;;0.60;99.90;;;;;;5052720;28;20041;-79
2023/03/02 06:09:39;;;;;;;37.03;9.07;;;0.50;99.90;;;;;;5072245;28;20451;-79
2023/03/02 06:12:07;;;;;;;40.38;10.38;;;0.50;99.90;;;;;;5039957;28;20086;-79
2023/03/02 06:14:35;;;;;;;46.80;9.60;;;1.10;99.90;;;;;;5056272;28;20041;-79
2023/03/02 06:17:01;;;;;;;37.20;11.13;;;0.50;99.90;;;;;;5056191;28;20040;-79
2023/03/02 06:19:28;;;;;;;23.75;9.63;;;1.00;99.90;;;;;;5038924;28;20045;-79
2023/03/02 06:21:55;;;;;;;40.40;10.20;;;0.50;99.90;;;;;;5055721;28;20041;-79
2023/03/02 06:24:21;;;;;;;34.90;10.05;;;0.50;99.90;;;;;;5088057;28;20124;-79
2023/03/02 06:26:48;;;;;;;72.55;9.52;;;0.40;99.90;;;;;;5071787;28;20037;-79
2023/03/02 06:29:15;;;;;;;21.38;7.53;;;0.40;99.90;;;;;;5049060;28;20482;-79
2023/03/02 06:31:41;;;;;;;19.38;7.75;;;0.90;99.90;;;;;;5051397;28;20045;-79
2023/03/02 06:34:08;;;;;;;34.45;7.93;;;0.90;99.90;;;;;;5051641;28;20073;-79
2023/03/02 06:36:38;;;;;;;35.13;7.70;;;0.30;99.90;;;;;;5035830;28;20053;-79
2023/03/02 06:39:14;;;;;;;22.77;8.38;;;0.80;99.90;;;;;;5052181;28;20045;-79
2023/03/02 06:41:48;;;;;;;20.98;8.55;;;0.40;99.90;;;;;;5052799;28;20072;-79
2023/03/02 06:44:16;;;;;;;21.60;8.40;;;0.40;99.90;;;;;;5063078;28;20029;-79
2023/03/02 06:46:43;;;;;;;23.92;9.35;;;0.40;99.90;;;;;;5066015;28;20049;-79
2023/03/02 06:49:10;;;;;;;57.35;9.07;;;0.60;99.90;;;;;;5079797;28;20080;-79
2023/03/02 06:51:37;;;;;;;25.30;9.75;;;0.30;99.90;;;;;;5073551;28;20072;-79
2023/03/02 06:54:06;;;;;;;23.83;9.27;;;0.40;99.90;;;;;;5063858;28;20123;-79
2023/03/02 06:56:34;;;;;;;21.55;8.43;;;0.40;99.90;;;;;;5047377;28;20080;-79
2023/03/02 06:59:00;;;;;;;19.40;9.07;;;0.40;99.90;;;;;;5085405;28;20041;-79
2023/03/02 07:01:31;;;;;;;25.45;8.63;;;0.40;99.90;;;;;;5054759;28;20558;-79
2023/03/02 07:03:58;;;;;;;20.65;8.40;;;1.10;99.90;;;;;;5057891;28;20103;-79
2023/03/02 07:06:24;;;;;;;51.53;9.10;;;0.40;99.90;;;;;;5035408;28;20442;-79
2023/03/02 07:08:51;;;;;;;30.73;8.45;;;0.30;99.90;;;;;;5048682;28;20069;-79
2023/03/02 07:11:18;;;;;;;33.88;8.82;;;0.60;99.90;;;;;;5055689;28;20033;-79
2023/03/02 07:13:48;;;;;;;26.92;8.77;;;0.30;99.90;;;;;;5038303;28;20123;-79
2023/03/02 07:16:15;;;;;;;24.60;9.35;;;0.30;99.90;;;;;;5056595;28;20094;-79
2023/03/02 07:18:42;;;;;;;38.70;10.25;;;0.40;99.90;;;;;;5046843;28;20498;-79
2023/03/02 07:21:08;;;;;;;27.23;9.63;;;0.40;99.90;;;;;;5054770;28;20045;-78
2023/03/02 07:23:35;;;;;;;21.55;9.70;;;0.40;99.90;;;;;;5054387;28;20493;-79
2023/03/02 07:26:07;;;;;;;22.52;8.85;;;0.40;99.90;;;;;;5062826;28;20511;-79
2023/03/02 07:28:38;;;;;;;26.10;8.88;;;0.50;99.90;;;;;;5049006;28;20028;-79
2023/03/02 07:31:05;;;;;;;20.20;8.80;;;0.50;99.90;;;;;;5059177;28;20493;-79
2023/03/02 07:33:32;;;;;;;29.90;8.73;;;1.10;99.90;;;;;;5046014;28;20041;-79
2023/03/02 07:35:59;;;;;;;31.73;9.93;;;0.50;99.90;;;;;;5057337;28;20079;-79
2023/03/02 07:38:27;;;;;;;41.35;10.55;;;0.40;99.90;;;;;;5079715;28;20036;-79
2023/03/02 07:40:54;;;;;;;32.90;8.65;;;0.40;99.90;;;;;;5087247;28;20037;-79
2023/03/02 07:43:22;;;;;;;21.38;9.32;;;0.40;99.90;;;;;;5050889;28;20112;-79
2023/03/02 07:45:49;;;;;;;26.48;9.13;;;0.40;99.90;;;;;;5043985;28;20112;-79
2023/03/02 07:48:16;;;;;;;22.38;9.52;;;0.40;99.90;;;;;;5079516;28;20177;-79
2023/03/02 07:50:43;;;;;;;25.42;8.68;;;0.40;99.90;;;;;;5082072;28;20051;-79
2023/03/02 07:53:10;;;;;;;26.98;8.02;;;0.40;99.90;;;;;;5058620;28;20048;-79
2023/03/02 07:55:43;;;;;;;21.95;8.77;;;0.40;99.90;;;;;;5091471;28;20855;-79
2023/03/02 07:58:09;;;;;;;21.55;8.63;;;1.10;99.90;;;;;;5071164;28;20416;-79
2023/03/02 08:00:37;;;;;;;20.85;8.40;;;1.20;99.90;;;;;;5075274;28;20127;-79
2023/03/02 08:03:04;;;;;;;21.30;8.82;;;0.50;99.90;;;;;;5074027;28;20044;-79
2023/03/02 08:05:31;;;;;;;19.58;8.07;;;0.50;99.90;;;;;;5074040;28;20055;-77
2023/03/02 08:07:57;;;;;;;23.50;9.40;;;0.50;99.90;;;;;;5057075;28;20398;-79
2023/03/02 08:10:27;;;;;;;23.80;8.43;;;0.60;99.90;;;;;;5073987;28;20481;-79
2023/03/02 08:12:54;;;;;;;25.98;8.80;;;0.60;99.90;;;;;;5073977;28;20468;-79
2023/03/02 08:15:20;;;;;;;20.88;8.40;;;0.70;99.90;;;;;;5057136;28;20135;-78
2023/03/02 08:17:48;;;;;;;30.77;9.07;;;0.70;99.90;;;;;;5073240;28;20475;-79
2023/03/02 08:20:14;;;;;;;30.13;9.13;;;1.60;99.90;;;;;;5058038;28;20044;-79
2023/03/02 08:22:41;;;;;;;48.85;7.57;;;0.80;99.90;;;;;;5061203;28;20103;-79
2023/03/02 08:25:08;;;;;;;20.95;8.88;;;0.80;99.90;;;;;;5080206;28;20039;-79
2023/03/02 08:27:35;;;;;;;24.20;8.43;;;0.70;99.90;;;;;;5072985;28;20044;-79
2023/03/02 08:30:01;;;;;;;26.45;9.73;;;1.60;99.90;;;;;;5075841;28;20427;-79
2023/03/02 08:32:28;;;;;;;21.17;7.72;;;0.80;99.90;;;;;;5079130;28;20032;-79
2023/03/02 08:34:55;;;;;;;19.33;8.02;;;0.80;99.90;;;;;;5101192;28;20574;-79
2023/03/02 08:37:22;;;;;;;19.77;7.60;;;0.80;99.90;;;;;;5087203;28;20036;-79
2023/03/02 08:39:49;;;;;;;15.45;6.82;;;0.80;99.90;;;;;;5088058;28;20036;-79
2023/03/02 08:42:16;;;;;;;17.60;7.55;;;1.40;99.90;;;;;;5074283;28;20052;-79
2023/03/02 08:44:43;;;;;;;17.30;7.28;;;0.70;99.90;;;;;;5070706;28;20457;-79
2023/03/02 08:47:10;;;;;;;16.23;6.72;;;1.50;99.90;;;;;;5056715;28;20061;-79
2023/03/02 08:49:37;;;;;;;14.90;6.43;;;1.00;99.90;;;;;;5068382;28;20032;-79
2023/03/02 08:52:04;;;;;;;19.33;7.40;;;0.90;99.90;;;;;;5088633;28;20347;-79
2023/03/02 08:54:33;;;;;;;19.60;6.78;;;1.60;99.90;;;;;;5083549;28;20040;-79
2023/03/02 08:57:00;;;;;;;21.95;7.07;;;1.70;99.90;;;;;;5093374;28;20587;-80
2023/03/02 08:59:27;;;;;;;19.95;8.18;;;1.60;99.90;;;;;;5093217;28;20129;-79
2023/03/02 09:01:54;;;;;;;16.52;7.53;;;1.30;99.90;;;;;;5092880;28;20073;-79
2023/03/02 09:04:20;;;;;;;20.60;6.88;;;1.40;99.90;;;;;;5109171;28;20062;-79
2023/03/02 09:06:47;;;;;;;14.15;6.47;;;1.30;99.90;;;;;;5071277;28;20029;-79
2023/03/02 09:09:14;;;;;;;24.45;6.85;;;1.30;99.90;;;;;;5071839;28;20031;-79
2023/03/02 09:11:41;;;;;;;21.85;7.00;;;1.60;99.90;;;;;;5095968;28;20039;-79
2023/03/02 09:14:08;;;;;;;15.50;6.18;;;1.20;99.90;;;;;;5067940;28;20131;-79
2023/03/02 09:16:35;;;;;;;32.10;8.32;;;1.20;99.90;;;;;;5059079;28;20028;-80
2023/03/02 09:19:02;;;;;;;15.50;6.05;;;1.10;99.90;;;;;;5075453;28;20058;-79
2023/03/02 09:21:28;;;;;;;20.95;5.97;;;1.30;99.90;;;;;;5069668;28;20067;-79
2023/03/02 09:23:57;;;;;;;20.77;6.90;;;1.90;99.90;;;;;;5072876;28;20056;-79
2023/03/02 09:26:25;;;;;;;25.33;6.13;;;1.90;99.90;;;;;;5089596;28;20046;-79
2023/03/02 09:28:52;;;;;;;17.92;6.38;;;1.40;99.90;;;;;;5093173;28;20040;-80
2023/03/02 09:31:19;;;;;;;17.17;6.05;;;1.50;99.90;;;;;;5072369;28;20040;-80
2023/03/02 09:33:48;;;;;;;18.23;6.25;;;1.60;99.90;;;;;;5071993;28;20186;-80
2023/03/02 09:36:21;;;;;;;17.35;6.53;;;2.00;99.90;;;;;;5058972;28;20040;-79
2023/03/02 09:38:48;;;;;;;15.13;6.47;;;1.50;99.90;;;;;;5093634;28;20488;-79
2023/03/02 09:41:20;;;;;;;13.88;6.25;;;1.50;99.90;;;;;;5054886;28;20098;-79
2023/03/02 09:44:32;;;;;;;14.32;5.35;;;1.60;99.90;;;;;;5071534;28;20071;-79
2023/03/02 09:47:03;;;;;;;18.63;6.78;;;1.70;99.90;;;;;;5041195;28;20191;-79
2023/03/02 09:49:56;;;;;;;22.85;8.10;;;1.80;99.90;;;;;;5085865;28;20039;-79
2023/03/02 09:52:29;;;;;;;17.25;7.22;;;1.80;99.90;;;;;;5090610;28;20048;-79
2023/03/02 09:55:03;;;;;;;19.90;7.90;;;1.80;99.90;;;;;;5072540;28;20032;-78
2023/03/02 09:57:37;;;;;;;15.02;6.53;;;2.10;99.90;;;;;;5077206;28;20071;-80
2023/03/02 10:00:27;;;;;;;14.93;6.30;;;1.80;99.90;;;;;;5081529;28;20047;-80
2023/03/02 10:03:02;;;;;;;17.10;6.40;;;1.70;99.90;;;;;;5072383;28;20043;-80
2023/03/02 10:05:37;;;;;;;15.48;5.95;;;1.70;99.90;;;;;;5071885;28;20040;-80
2023/03/02 10:08:09;;;;;;;17.38;6.88;;;1.70;99.90;;;;;;5088510;28;20397;-80
2023/03/02 10:10:41;;;;;;;17.92;6.65;;;1.60;99.90;;;;;;5056222;28;20040;-80
2023/03/02 10:13:42;;;;;;;13.80;6.40;;;1.70;99.90;;;;;;5072605;28;20044;-80
2023/03/02 10:16:41;;;;;;;16.20;6.32;;;1.70;99.90;;;;;;5054682;28;20048;-80
2023/03/02 10:19:19;;;;;;;14.85;5.93;;;1.80;99.90;;;;;;5086464;28;20044;-80
2023/03/02 10:21:56;;;;;;;13.27;5.05;;;1.80;99.90;;;;;;5087110;28;20036;-80
2023/03/02 10:24:36;;;;;;;17.80;5.85;;;1.90;99.90;;;;;;5079792;28;20039;-80
2023/03/02 10:27:33;;;;;;;11.55;5.13;;;1.90;99.90;;;;;;5077795;28;20029;-80
2023/03/02 10:29:59;;;;;;;16.45;5.88;;;2.10;99.90;;;;;;5084828;28;20132;-80
2023/03/02 10:32:36;;;;;;;13.80;5.15;;;2.20;99.90;;;;;;5073803;28;20531;-80
2023/03/02 10:35:24;;;;;;;16.58;6.45;;;2.20;99.90;;;;;;5071113;28;20052;-80
2023/03/02 10:37:58;;;;;;;15.45;6.43;;;2.30;99.90;;;;;;5091193;28;20616;-80
2023/03/02 10:41:00;;;;;;;15.85;6.18;;;2.40;99.90;;;;;;5085993;28;20045;-80
2023/03/02 10:43:35;;;;;;;17.10;6.47;;;2.50;99.90;;;;;;5071219;28;20040;-80
2023/03/02 10:46:03;;;;;;;;;;;2.70;99.90;;;;;;5083735;28;20136;-80
2023/03/02 10:48:30;;;;;;;17.23;5.97;;;2.60;99.90;;;;;;5093269;28;20829;-80
2023/03/02 10:50:59;;;;;;;13.05;5.63;;;2.70;99.90;;;;;;5051670;28;20040;-80
2023/03/02 10:53:25;;;;;;;16.02;6.32;;;2.70;99.90;;;;;;5082704;28;20036;-79
2023/03/02 10:55:53;;;;;;;14.65;5.85;;;2.60;99.90;;;;;;5074770;28;20411;-79
2023/03/02 10:58:30;;;;;;;14.65;6.00;;;2.60;99.90;;;;;;5063594;28;20131;-79
2023/03/02 11:00:58;;;;;;;14.23;6.40;;;2.60;99.90;;;;;;5107582;28;20046;-80
2023/03/02 11:03:25;;;;;;;16.17;6.13;;;2.60;99.90;;;;;;5074950;28;20040;-80
2023/03/02 11:05:52;;;;;;;18.25;6.30;;;2.60;99.90;;;;;;5058312;28;20032;-79
2023/03/02 11:08:22;;;;;;;14.23;6.40;;;2.60;99.90;;;;;;5041687;28;20124;-80
2023/03/02 11:11:02;;;;;;;18.13;6.57;;;2.90;99.90;;;;;;5074622;28;20099;-80
2023/03/02 11:13:37;;;;;;;14.20;6.55;;;2.50;99.90;;;;;;5074816;28;20123;-80
2023/03/02 11:16:18;;;;;;;16.02;6.65;;;2.50;99.90;;;;;;5073912;28;20040;-79
2023/03/02 11:18:54;;;;;;;14.73;5.82;;;2.70;99.90;;;;;;5080983;28;20036;-80
2023/03/02 11:22:13;;;;;;;13.90;5.30;;;2.60;99.90;;;;;;5074495;28;20127;-80
2023/03/02 11:24:44;;;;;;;13.73;6.05;;;2.60;99.90;;;;;;5007745;28;20054;-79
2023/03/02 11:27:25;;;;;;;18.67;5.88;;;2.60;99.90;;;;;;5077025;28;20032;-79
2023/03/02 11:30:05;;;;;;;14.40;5.72;;;2.80;99.90;;;;;;5090608;28;20109;-79
2023/03/02 11:32:38;;;;;;;17.65;6.25;;;2.90;99.90;;;;;;5080879;28;20081;-79
2023/03/02 11:35:52;;;;;;;16.40;5.82;;;3.10;99.90;;;;;;5095907;28;20118;-79
2023/03/02 11:38:29;;;;;;;12.52;6.15;;;3.20;99.90;;;;;;5068232;28;20508;-79
2023/03/02 11:41:14;;;;;;;15.95;6.15;;;3.30;99.90;;;;;;5095934;28;20131;-79
2023/03/02 11:43:40;;;;;;;16.25;6.75;;;3.10;99.90;;;;;;5084400;28;20044;-79
2023/03/02 11:46:20;;;;;;;15.60;6.45;;;3.10;99.90;;;;;;5073196;28;20436;-79
2023/03/02 11:48:52;;;;;;;17.27;5.75;;;3.00;99.90;;;;;;5084734;28;20408;-79
2023/03/02 11:51:23;;;;;;;11.07;5.22;;;2.90;99.90;;;;;;5087395;28;20089;-79
2023/03/02 11:54:21;;;;;;;11.82;5.72;;;2.90;99.90;;;;;;5080371;28;20040;-79
2023/03/02 11:56:48;;;;;;;12.30;5.57;;;2.90;99.90;;;;;;5079311;28;20493;-79
2023/03/02 11:59:20;;;;;;;10.40;4.80;;;2.90;99.90;;;;;;5067042;28;20032;-79
2023/03/02 12:01:51;;;;;;;12.45;4.50;;;2.90;99.90;;;;;;5075140;28;20101;-79
2023/03/02 12:04:27;;;;;;;11.13;4.45;;;3.30;99.90;;;;;;5099663;28;20036;-79
2023/03/02 12:06:54;;;;;;;;;;;3.00;99.90;;;;;;5087762;28;20044;-79
2023/03/02 12:09:29;;;;;;;11.32;4.50;;;3.00;99.90;;;;;;5072722;28;19931;-79
2023/03/02 12:12:18;;;;;;;10.23;4.75;;;3.10;99.90;;;;;;5083422;28;20040;-79
2023/03/02 12:14:44;;;;;;;12.70;3.97;;;3.10;99.90;;;;;;5091001;28;20667;-79
2023/03/02 12:17:19;;;;;;;9.23;4.00;;;3.20;99.90;;;;;;5078165;28;20136;-79
2023/03/02 12:19:47;;;;;;;13.57;5.47;;;3.30;99.90;;;;;;5093472;28;20044;-79
2023/03/02 12:26:19;;;;;;;11.10;4.35;;;3.30;99.90;;;;;;5112389;28;20540;-80
2023/03/02 12:28:55;;;;;;;11.95;4.22;;;3.20;99.90;;;;;;5080493;28;20416;-80
2023/03/02 12:31:22;;;;;;;13.40;4.68;;;3.30;99.90;;;;;;5097553;28;20040;-80
2023/03/02 12:33:50;;;;;;;12.07;3.97;;;3.40;99.90;;;;;;5067217;28;20515;-80
2023/03/02 12:36:30;;;;;;;10.20;4.80;;;3.40;99.90;;;;;;5080669;28;20036;-80
2023/03/02 12:39:29;;;;;;;10.75;4.60;;;3.50;99.90;;;;;;5106251;28;20050;-79
2023/03/02 12:41:59;;;;;;;11.25;5.15;;;3.60;99.90;;;;;;5056128;28;20517;-79
2023/03/02 12:44:50;;;;;;;11.30;4.07;;;3.80;99.90;;;;;;5084149;28;20040;-79
2023/03/02 12:47:25;;;;;;;11.57;5.07;;;3.70;99.90;;;;;;5092293;28;20052;-79
2023/03/02 12:50:03;;;;;;;13.10;4.63;;;3.90;99.90;;;;;;5089436;28;20492;-79
2023/03/02 12:52:32;;;;;;;10.18;3.97;;;3.90;99.90;;;;;;5076687;28;20048;-80
2023/03/02 12:55:10;;;;;;;10.73;4.38;;;4.00;99.90;;;;;;5080988;28;20044;-80
2023/03/02 12:57:45;;;;;;;12.10;4.57;;;4.10;99.90;;;;;;5058124;28;20055;-80
2023/03/02 13:00:16;;;;;;;12.13;5.43;;;4.10;99.90;;;;;;5083819;28;20123;-80
2023/03/02 13:02:51;;;;;;;11.75;4.60;;;4.10;99.90;;;;;;5102188;28;20052;-79
2023/03/02 13:05:23;;;;;;;9.75;4.65;;;4.20;99.90;;;;;;5071877;28;20063;-79